Terminal Aerodrome Forecast
Issued by NWS Sioux Falls, SD

Home | Current Version | Previous Version | Text Only | Print | Product List | Glossary On
Versions: 1 2 3 4 5 6 7 8 9 10 11 12 13 14 15 16 17 18
000
FTUS43 KFSD 241126
TAFHON
TAF
KHON 241126Z 2412/2512 15013G21KT P6SM FEW060 OVC100
     FM241300 15016G24KT P6SM BKN012 OVC060
     FM241400 15015G25KT P6SM -SHRA OVC015
     FM241600 16014G23KT 5SM -RA BR OVC018
     FM242000 16012G19KT P6SM BKN025
     FM242300 16008KT P6SM SCT025
     FM251000 30014KT P6SM BKN025=

USA.gov is the U.S. government's official web portal to all federal, state and local government web resources and services.